King of Scandinavia — OVOL2 — position and weather

sailwx.info

Track history (hours):
 
Tides and Currents Weather Stations Pressure Air Temp Water Temp Dewpoint Dewpoint Depression Visibility Wind Speed Wind Dir Waves Ship Positions

King of Scandinavia

Ship's website: http://www.dfds.co.uk/DSW/EN/OnBoard/na/KING.htm

Last reported at 2015-Jun-30 09:33 UTC. Time now 2015-Jun-30 10:01 UTC.
Position N 52°28' E 004°35'.

Length 166 m; beam 27.6 m; draft 6.2 m.

Type: Passenger vessel. MMSI: 220449000.

Date/timePositionNaut miles runAvg speedWind from/ knotsBaromVisibWave heightAir tempDewpointWater temp
2015-Jun-30 09:33N 52°28' E 004°35'0 0.0
2015-Jun-30 08:33N 52°28' E 004°35'0 0.0
2015-Jun-30 07:33N 52°28' E 004°35'1010.4
2015-Jun-30 06:34N 52°33' E 004°21'1716.8
2015-Jun-30 05:33N 52°44' E 003°60'1817.9
2015-Jun-30 04:33N 52°56' E 003°37'1817.7
2015-Jun-30 03:33N 53°08' E 003°15'1918.4
2015-Jun-30 02:32N 53°20' E 002°51'2618.7
2015-Jun-30 01:08N 53°37' E 002°17'1118.5
2015-Jun-30 00:33N 53°42' E 002°02'5417.9
2015-Jun-29 21:33N 54°12' E 000°46'1716.7
2015-Jun-29 20:34N 54°21' E 000°22'1716.7
2015-Jun-29 19:33N 54°30' W 000°02'1716.6
2015-Jun-29 18:34N 54°39' W 000°26'1716.9
2015-Jun-29 17:33N 54°48' W 000°51'1817.6
2015-Jun-29 16:33N 54°58' W 001°16'3 0.3
2015-Jun-29 07:17N 54°57' W 001°12'1318.2
2015-Jun-29 06:33N 54°49' W 000°53'1817.9
2015-Jun-29 05:33N 54°40' W 000°27'1817.8
2015-Jun-29 04:34N 54°30' W 000°01'1717.3
2015-Jun-29 03:33N 54°20' E 000°23'14416.0
2015-Jun-28 18:33N 52°54' E 003°38'1514.8
2015-Jun-28 17:33N 52°46' E 003°57'1514.6
2015-Jun-28 16:33N 52°36' E 004°16'1414.0
2015-Jun-28 15:33N 52°28' E 004°34'1 0.7
2015-Jun-28 14:32N 52°28' E 004°35'0 0.0
2015-Jun-28 13:32N 52°28' E 004°35'0 0.0
2015-Jun-28 12:32N 52°28' E 004°35'0 0.0
2015-Jun-28 11:32N 52°28' E 004°35'0 0.0
2015-Jun-28 10:32N 52°28' E 004°35'0 0.0
2015-Jun-28 09:32N 52°28' E 004°35'0 0.0
2015-Jun-28 08:32N 52°28' E 004°35'0 0.0
2015-Jun-28 07:34N 52°28' E 004°35'1211.9
2015-Jun-28 06:33N 52°35' E 004°19'1817.7
2015-Jun-28 05:33N 52°46' E 003°57'1817.9
2015-Jun-28 04:33N 52°58' E 003°34'1918.2
2015-Jun-28 03:30N 53°10' E 003°10'3517.9
2015-Jun-28 01:32N 53°33' E 002°25'1717.6
2015-Jun-28 00:33N 53°43' E 002°01'5317.4
2015-Jun-27 21:32N 54°12' E 000°47'1717.4
2015-Jun-27 20:33N 54°21' E 000°22'1717.3
2015-Jun-27 19:33N 54°30' W 000°03'1717.3
2015-Jun-27 18:33N 54°40' W 000°28'1717.4
2015-Jun-27 17:33N 54°50' W 000°52'1817.5
2015-Jun-27 16:33N 54°59' W 001°18'2 0.2
2015-Jun-27 07:14N 54°58' W 001°15'1217.6
2015-Jun-27 06:33N 54°52' W 000°57'1817.8
2015-Jun-27 05:33N 54°42' W 000°31'1817.8
2015-Jun-27 04:33N 54°32' W 000°06'1817.5
2015-Jun-27 03:33N 54°22' E 000°19'1717.1
2015-Jun-27 02:33N 54°13' E 000°44'1916.6
2015-Jun-27 01:25N 54°03' E 001°11'10216.6
2015-Jun-26 19:16N 53°02' E 003°28'1215.5
2015-Jun-26 18:28N 52°54' E 003°45'1415.4
2015-Jun-26 17:33N 52°44' E 004°01'1515.3
2015-Jun-26 16:33N 52°34' E 004°20'1111.1
2015-Jun-26 15:33N 52°28' E 004°35'0 0.0
2015-Jun-26 14:32N 52°28' E 004°35'0 0.0
2015-Jun-26 13:32N 52°28' E 004°35'0 0.0
2015-Jun-26 12:32N 52°28' E 004°35'0 0.0
2015-Jun-26 11:32N 52°28' E 004°35'0 0.0
2015-Jun-26 10:29N 52°28' E 004°35'0 0.0
2015-Jun-26 09:32N 52°28' E 004°35'0 0.0
2015-Jun-26 08:32N 52°28' E 004°35'0 0.1
2015-Jun-26 07:34N 52°28' E 004°35'1111.2
2015-Jun-26 06:33N 52°34' E 004°20'1616.2
2015-Jun-26 05:34N 52°45' E 003°60'1817.5
2015-Jun-26 04:34N 52°56' E 003°38'3618.0
2015-Jun-26 02:33N 53°19' E 002°52'9018.1
2015-Jun-25 21:33N 54°12' E 000°47'1817.9
2015-Jun-25 20:33N 54°21' E 000°21'1817.8
2015-Jun-25 19:34N 54°31' W 000°05'1716.8
2015-Jun-25 18:33N 54°40' W 000°29'1817.6
2015-Jun-25 17:33N 54°50' W 000°54'1717.3
2015-Jun-25 16:33N 54°59' W 001°20'4 0.5
2015-Jun-25 07:30N 54°58' W 001°13'1617.2
2015-Jun-25 06:33N 54°48' W 000°50'1717.3
2015-Jun-25 05:32N 54°39' W 000°24'1717.6
2015-Jun-25 04:33N 54°30' E 000°01'1817.6
2015-Jun-25 03:33N 54°20' E 000°26'1817.9
2015-Jun-25 02:33N 54°10' E 000°52'15016.4
2015-Jun-24 17:24N 52°39' E 004°11'1214.6
2015-Jun-24 16:33N 52°30' E 004°26'6 6.3
2015-Jun-24 15:33N 52°28' E 004°35'0 0.0
2015-Jun-24 14:31N 52°28' E 004°35'0 0.0
2015-Jun-24 13:31N 52°28' E 004°35'0 0.0
2015-Jun-24 12:31N 52°28' E 004°35'0 0.0
2015-Jun-24 11:31N 52°28' E 004°35'0 0.0
2015-Jun-24 10:31N 52°28' E 004°35'0 0.0
2015-Jun-24 09:31N 52°28' E 004°35'0 0.0
2015-Jun-24 08:31N 52°28' E 004°35'0 0.0
2015-Jun-24 07:33N 52°28' E 004°35'1010.3
2015-Jun-24 06:33N 52°34' E 004°21'16017.7
2015-Jun-23 21:31N 54°11' E 000°48'1718.1
2015-Jun-23 20:33N 54°20' E 000°23'1818.2
2015-Jun-23 19:33N 54°30' W 000°04'817.8
2015-Jun-23 19:05N 54°34' W 000°16'179 7.2
2015-Jun-22 18:10N 52°50' E 003°49'914.9
2015-Jun-22 17:33N 52°44' E 004°01'1514.9
2015-Jun-22 16:33N 52°34' E 004°19'1212.0
2015-Jun-22 15:33N 52°28' E 004°35'0 0.0
2015-Jun-22 14:30N 52°28' E 004°35'0 0.0
2015-Jun-22 13:33N 52°28' E 004°35'0 0.0
2015-Jun-22 12:33N 52°28' E 004°35'0 0.0
2015-Jun-22 11:33N 52°28' E 004°35'0 0.0
2015-Jun-22 10:33N 52°28' E 004°35'0 0.0
2015-Jun-22 09:33N 52°28' E 004°35'0 0.0
2015-Jun-22 08:33N 52°28' E 004°35'0 0.0
2015-Jun-22 07:33N 52°28' E 004°35'1111.0
2015-Jun-22 06:33N 52°34' E 004°21'1515.0
2015-Jun-22 05:33N 52°44' E 004°01'1615.4
2015-Jun-22 04:32N 52°54' E 003°42'12717.3
2015-Jun-21 21:11N 54°10' E 000°50'1219.3
2015-Jun-21 20:33N 54°17' E 000°33'1919.2
2015-Jun-21 19:33N 54°27' E 000°05'1919.0
2015-Jun-21 18:33N 54°37' W 000°22'1818.4
2015-Jun-21 17:33N 54°48' W 000°49'1817.9
2015-Jun-21 16:33N 54°57' W 001°15'9 0.9
2015-Jun-21 06:33N 54°53' W 001°00'1716.5
2015-Jun-21 05:32N 54°44' W 000°36'1616.7
2015-Jun-21 04:33N 54°35' W 000°13'1717.4
2015-Jun-21 03:33N 54°25' E 000°12'1817.9
2015-Jun-21 02:33N 54°16' E 000°38'14816.4
2015-Jun-20 17:33N 52°47' E 003°57'1615.6
2015-Jun-20 16:33N 52°37' E 004°16'1414.4
2015-Jun-20 15:34N 52°28' E 004°34'0 0.5
2015-Jun-20 14:29N 52°28' E 004°35'0 0.0
2015-Jun-20 13:32N 52°28' E 004°35'0 0.0
2015-Jun-20 12:32N 52°28' E 004°35'0 0.0
2015-Jun-20 11:32N 52°28' E 004°35'0 0.0
2015-Jun-20 10:32N 52°28' E 004°35'  
Track history (hours):
 
Tides and Currents Weather Stations Pressure Air Temp Water Temp Dewpoint Dewpoint Depression Visibility Wind Speed Wind Dir Waves Ship Positions

King of Scandinavia

Ship's website: http://www.dfds.co.uk/DSW/EN/OnBoard/na/KING.htm

Last reported at 2015-Jun-30 09:33 UTC. Time now 2015-Jun-30 10:01 UTC.
Position N 52°28' E 004°35'.

Length 166 m; beam 27.6 m; draft 6.2 m.

Type: Passenger vessel. MMSI: 220449000.

Date/timePositionNaut miles runAvg speedWind from/ knotsBaromVisibWave heightAir tempDewpointWater temp
2015-Jun-30 09:33N 52°28' E 004°35'0 0.0
2015-Jun-30 08:33N 52°28' E 004°35'0 0.0
2015-Jun-30 07:33N 52°28' E 004°35'1010.4
2015-Jun-30 06:34N 52°33' E 004°21'1716.8
2015-Jun-30 05:33N 52°44' E 003°60'1817.9
2015-Jun-30 04:33N 52°56' E 003°37'1817.7
2015-Jun-30 03:33N 53°08' E 003°15'1918.4
2015-Jun-30 02:32N 53°20' E 002°51'2618.7
2015-Jun-30 01:08N 53°37' E 002°17'1118.5
2015-Jun-30 00:33N 53°42' E 002°02'5417.9
2015-Jun-29 21:33N 54°12' E 000°46'1716.7
2015-Jun-29 20:34N 54°21' E 000°22'1716.7
2015-Jun-29 19:33N 54°30' W 000°02'1716.6
2015-Jun-29 18:34N 54°39' W 000°26'1716.9
2015-Jun-29 17:33N 54°48' W 000°51'1817.6
2015-Jun-29 16:33N 54°58' W 001°16'3 0.3
2015-Jun-29 07:17N 54°57' W 001°12'1318.2
2015-Jun-29 06:33N 54°49' W 000°53'1817.9
2015-Jun-29 05:33N 54°40' W 000°27'1817.8
2015-Jun-29 04:34N 54°30' W 000°01'1717.3
2015-Jun-29 03:33N 54°20' E 000°23'14416.0
2015-Jun-28 18:33N 52°54' E 003°38'1514.8
2015-Jun-28 17:33N 52°46' E 003°57'1514.6
2015-Jun-28 16:33N 52°36' E 004°16'1414.0
2015-Jun-28 15:33N 52°28' E 004°34'1 0.7
2015-Jun-28 14:32N 52°28' E 004°35'0 0.0
2015-Jun-28 13:32N 52°28' E 004°35'0 0.0
2015-Jun-28 12:32N 52°28' E 004°35'0 0.0
2015-Jun-28 11:32N 52°28' E 004°35'0 0.0
2015-Jun-28 10:32N 52°28' E 004°35'0 0.0
2015-Jun-28 09:32N 52°28' E 004°35'0 0.0
2015-Jun-28 08:32N 52°28' E 004°35'0 0.0
2015-Jun-28 07:34N 52°28' E 004°35'1211.9
2015-Jun-28 06:33N 52°35' E 004°19'1817.7
2015-Jun-28 05:33N 52°46' E 003°57'1817.9
2015-Jun-28 04:33N 52°58' E 003°34'1918.2
2015-Jun-28 03:30N 53°10' E 003°10'3517.9
2015-Jun-28 01:32N 53°33' E 002°25'1717.6
2015-Jun-28 00:33N 53°43' E 002°01'5317.4
2015-Jun-27 21:32N 54°12' E 000°47'1717.4
2015-Jun-27 20:33N 54°21' E 000°22'1717.3
2015-Jun-27 19:33N 54°30' W 000°03'1717.3
2015-Jun-27 18:33N 54°40' W 000°28'1717.4
2015-Jun-27 17:33N 54°50' W 000°52'1817.5
2015-Jun-27 16:33N 54°59' W 001°18'2 0.2
2015-Jun-27 07:14N 54°58' W 001°15'1217.6
2015-Jun-27 06:33N 54°52' W 000°57'1817.8
2015-Jun-27 05:33N 54°42' W 000°31'1817.8
2015-Jun-27 04:33N 54°32' W 000°06'1817.5
2015-Jun-27 03:33N 54°22' E 000°19'1717.1
2015-Jun-27 02:33N 54°13' E 000°44'1916.6
2015-Jun-27 01:25N 54°03' E 001°11'10216.6
2015-Jun-26 19:16N 53°02' E 003°28'1215.5
2015-Jun-26 18:28N 52°54' E 003°45'1415.4
2015-Jun-26 17:33N 52°44' E 004°01'1515.3
2015-Jun-26 16:33N 52°34' E 004°20'1111.1
2015-Jun-26 15:33N 52°28' E 004°35'0 0.0
2015-Jun-26 14:32N 52°28' E 004°35'0 0.0
2015-Jun-26 13:32N 52°28' E 004°35'0 0.0
2015-Jun-26 12:32N 52°28' E 004°35'0 0.0
2015-Jun-26 11:32N 52°28' E 004°35'0 0.0
2015-Jun-26 10:29N 52°28' E 004°35'0 0.0
2015-Jun-26 09:32N 52°28' E 004°35'0 0.0
2015-Jun-26 08:32N 52°28' E 004°35'0 0.1
2015-Jun-26 07:34N 52°28' E 004°35'1111.2
2015-Jun-26 06:33N 52°34' E 004°20'1616.2
2015-Jun-26 05:34N 52°45' E 003°60'1817.5
2015-Jun-26 04:34N 52°56' E 003°38'3618.0
2015-Jun-26 02:33N 53°19' E 002°52'9018.1
2015-Jun-25 21:33N 54°12' E 000°47'1817.9
2015-Jun-25 20:33N 54°21' E 000°21'1817.8
2015-Jun-25 19:34N 54°31' W 000°05'1716.8
2015-Jun-25 18:33N 54°40' W 000°29'1817.6
2015-Jun-25 17:33N 54°50' W 000°54'1717.3
2015-Jun-25 16:33N 54°59' W 001°20'4 0.5
2015-Jun-25 07:30N 54°58' W 001°13'1617.2
2015-Jun-25 06:33N 54°48' W 000°50'1717.3
2015-Jun-25 05:32N 54°39' W 000°24'1717.6
2015-Jun-25 04:33N 54°30' E 000°01'1817.6
2015-Jun-25 03:33N 54°20' E 000°26'1817.9
2015-Jun-25 02:33N 54°10' E 000°52'15016.4
2015-Jun-24 17:24N 52°39' E 004°11'1214.6
2015-Jun-24 16:33N 52°30' E 004°26'6 6.3
2015-Jun-24 15:33N 52°28' E 004°35'0 0.0
2015-Jun-24 14:31N 52°28' E 004°35'0 0.0
2015-Jun-24 13:31N 52°28' E 004°35'0 0.0
2015-Jun-24 12:31N 52°28' E 004°35'0 0.0
2015-Jun-24 11:31N 52°28' E 004°35'0 0.0
2015-Jun-24 10:31N 52°28' E 004°35'0 0.0
2015-Jun-24 09:31N 52°28' E 004°35'0 0.0
2015-Jun-24 08:31N 52°28' E 004°35'0 0.0
2015-Jun-24 07:33N 52°28' E 004°35'1010.3
2015-Jun-24 06:33N 52°34' E 004°21'16017.7
2015-Jun-23 21:31N 54°11' E 000°48'1718.1
2015-Jun-23 20:33N 54°20' E 000°23'1818.2
2015-Jun-23 19:33N 54°30' W 000°04'817.8
2015-Jun-23 19:05N 54°34' W 000°16'179 7.2
2015-Jun-22 18:10N 52°50' E 003°49'914.9
2015-Jun-22 17:33N 52°44' E 004°01'1514.9
2015-Jun-22 16:33N 52°34' E 004°19'1212.0
2015-Jun-22 15:33N 52°28' E 004°35'0 0.0
2015-Jun-22 14:30N 52°28' E 004°35'0 0.0
2015-Jun-22 13:33N 52°28' E 004°35'0 0.0
2015-Jun-22 12:33N 52°28' E 004°35'0 0.0
2015-Jun-22 11:33N 52°28' E 004°35'0 0.0
2015-Jun-22 10:33N 52°28' E 004°35'0 0.0
2015-Jun-22 09:33N 52°28' E 004°35'0 0.0
2015-Jun-22 08:33N 52°28' E 004°35'0 0.0
2015-Jun-22 07:33N 52°28' E 004°35'1111.0
2015-Jun-22 06:33N 52°34' E 004°21'1515.0
2015-Jun-22 05:33N 52°44' E 004°01'1615.4
2015-Jun-22 04:32N 52°54' E 003°42'12717.3
2015-Jun-21 21:11N 54°10' E 000°50'1219.3
2015-Jun-21 20:33N 54°17' E 000°33'1919.2
2015-Jun-21 19:33N 54°27' E 000°05'1919.0
2015-Jun-21 18:33N 54°37' W 000°22'1818.4
2015-Jun-21 17:33N 54°48' W 000°49'1817.9
2015-Jun-21 16:33N 54°57' W 001°15'9 0.9
2015-Jun-21 06:33N 54°53' W 001°00'1716.5
2015-Jun-21 05:32N 54°44' W 000°36'1616.7
2015-Jun-21 04:33N 54°35' W 000°13'1717.4
2015-Jun-21 03:33N 54°25' E 000°12'1817.9
2015-Jun-21 02:33N 54°16' E 000°38'14816.4
2015-Jun-20 17:33N 52°47' E 003°57'1615.6
2015-Jun-20 16:33N 52°37' E 004°16'1414.4
2015-Jun-20 15:34N 52°28' E 004°34'0 0.5
2015-Jun-20 14:29N 52°28' E 004°35'0 0.0
2015-Jun-20 13:32N 52°28' E 004°35'0 0.0
2015-Jun-20 12:32N 52°28' E 004°35'0 0.0
2015-Jun-20 11:32N 52°28' E 004°35'0 0.0
2015-Jun-20 10:32N 52°28' E 004°35'  

Dump ship's entire track history